Time;durP1;ratioP1;P1;durP2;ratioP2;P2;SDS_P1;SDS_P2;PMS_P1;PMS_P2;Temp;Humidity;BMP_temperature;BMP_pressure;BME280_temperature;BME280_humidity;BME280_pressure;Samples;Min_cycle;Max_cycle;Signal;HPM_P1;HPM_P2
2022/11/15 00:01:01;;;;;;;55.47;26.88;;;;;;;9.22;100.00;100793.88;5204739;28;20060;-72
2022/11/15 00:03:32;;;;;;;67.78;27.55;;;;;;;9.28;100.00;100793.25;5204725;28;20013;-72
2022/11/15 00:06:05;;;;;;;59.10;27.27;;;;;;;9.36;100.00;100792.47;5205297;28;20473;-72
2022/11/15 00:08:35;;;;;;;53.80;25.88;;;;;;;9.41;100.00;100789.31;5204509;28;20159;-72
2022/11/15 00:11:06;;;;;;;53.10;25.92;;;;;;;9.45;100.00;100796.03;5204804;28;20504;-72
2022/11/15 00:13:36;;;;;;;74.22;27.38;;;;;;;9.50;100.00;100796.38;5204967;28;20029;-72
2022/11/15 00:16:08;;;;;;;57.20;26.75;;;;;;;9.53;100.00;100791.53;5203848;28;20025;-72
2022/11/15 00:18:39;;;;;;;59.03;25.60;;;;;;;9.57;100.00;100792.06;5204749;28;20030;-72
2022/11/15 00:21:11;;;;;;;55.85;26.75;;;;;;;9.58;100.00;100791.88;5204864;28;20033;-72
2022/11/15 00:23:42;;;;;;;58.20;28.02;;;;;;;9.64;100.00;100784.19;5204654;28;20024;-71
2022/11/15 00:26:14;;;;;;;57.90;25.25;;;;;;;9.67;100.00;100787.41;5193036;28;20030;-71
2022/11/15 00:28:44;;;;;;;56.88;26.60;;;;;;;9.69;100.00;100782.75;5204556;28;20082;-72
2022/11/15 00:31:15;;;;;;;63.05;26.90;;;;;;;9.73;100.00;100792.09;5191380;28;20471;-71
2022/11/15 00:33:45;;;;;;;54.47;25.10;;;;;;;9.75;100.00;100789.28;5204785;28;20021;-70
2022/11/15 00:36:16;;;;;;;53.13;24.95;;;;;;;9.81;100.00;100784.09;5204358;28;20501;-72
2022/11/15 00:38:46;;;;;;;54.45;24.88;;;;;;;9.88;100.00;100792.31;5204017;28;20025;-71
2022/11/15 00:41:17;;;;;;;57.58;26.33;;;;;;;9.89;100.00;100791.34;5204814;28;20025;-72
2022/11/15 00:43:47;;;;;;;53.97;24.45;;;;;;;9.92;100.00;100790.16;5204461;28;20120;-72
2022/11/15 00:46:18;;;;;;;54.65;23.77;;;;;;;9.92;100.00;100795.53;5204833;28;20052;-72
2022/11/15 00:48:48;;;;;;;46.28;23.65;;;;;;;9.93;100.00;100797.19;5203542;28;20029;-72
2022/11/15 00:51:19;;;;;;;50.67;24.08;;;;;;;9.96;100.00;100796.88;5204496;28;20503;-72
2022/11/15 00:53:49;;;;;;;59.13;23.45;;;;;;;9.99;100.00;100797.41;5204210;28;20811;-72
2022/11/15 00:56:19;;;;;;;56.05;26.13;;;;;;;10.06;100.00;100798.41;5204306;28;20529;-73
2022/11/15 00:58:50;;;;;;;54.30;25.23;;;;;;;10.11;100.00;100795.25;5203816;28;20383;-73
2022/11/15 01:01:20;;;;;;;54.08;27.20;;;;;;;10.13;100.00;100799.41;5204052;28;20116;-72
2022/11/15 01:03:51;;;;;;;54.58;24.77;;;;;;;10.17;100.00;100799.94;5204116;28;20022;-72
2022/11/15 01:06:21;;;;;;;51.78;24.42;;;;;;;10.19;100.00;100805.13;5204276;28;20029;-72
2022/11/15 01:08:52;;;;;;;48.70;23.15;;;;;;;10.21;100.00;100803.13;5203527;28;20029;-72
2022/11/15 01:11:22;;;;;;;46.08;23.23;;;;;;;10.23;100.00;100801.13;5204209;28;20052;-73
2022/11/15 01:13:54;;;;;;;49.40;24.55;;;;;;;10.25;100.00;100797.31;5202916;28;20041;-72
2022/11/15 01:16:24;;;;;;;55.45;24.85;;;;;;;10.27;100.00;100794.47;5204070;28;20141;-72
2022/11/15 01:18:55;;;;;;;45.72;25.02;;;;;;;10.29;100.00;100792.44;5203726;28;20117;-72
2022/11/15 01:21:25;;;;;;;54.63;26.10;;;;;;;10.31;100.00;100787.78;5204084;28;20366;-71
2022/11/15 01:23:57;;;;;;;49.72;24.13;;;;;;;10.34;100.00;100793.66;5203809;28;20067;-72
2022/11/15 01:26:27;;;;;;;51.97;23.10;;;;;;;10.36;100.00;100790.78;5188491;28;20022;-72
2022/11/15 01:28:58;;;;;;;53.42;23.83;;;;;;;10.37;100.00;100790.63;5194703;28;20118;-72
2022/11/15 01:31:28;;;;;;;49.75;24.40;;;;;;;10.39;100.00;100782.41;5201870;28;20029;-72
2022/11/15 01:33:59;;;;;;;47.53;23.63;;;;;;;10.42;100.00;100783.91;5204608;28;20028;-72
2022/11/15 01:36:29;;;;;;;43.63;21.98;;;;;;;10.44;100.00;100782.75;5204478;28;20368;-72
2022/11/15 01:39:00;;;;;;;51.25;23.48;;;;;;;10.46;100.00;100772.69;5204038;28;20077;-73
2022/11/15 01:41:32;;;;;;;51.65;23.33;;;;;;;10.48;100.00;100776.03;5204076;28;20029;-72
2022/11/15 01:44:30;;;;;;;47.75;23.42;;;;;;;10.49;100.00;100775.06;5203725;28;20105;-72
2022/11/15 01:47:06;;;;;;;46.33;22.60;;;;;;;10.48;100.00;100765.31;5203058;28;20029;-72
2022/11/15 01:49:41;;;;;;;44.50;22.25;;;;;;;10.48;100.00;100765.31;5203738;28;20029;-72
2022/11/15 01:52:17;;;;;;;48.55;23.65;;;;;;;10.50;100.00;100763.31;5203849;28;20060;-72
2022/11/15 01:54:52;;;;;;;46.53;22.15;;;;;;;10.52;100.00;100765.81;5204015;28;20056;-72
2022/11/15 01:57:22;;;;;;;41.57;22.67;;;;;;;10.49;100.00;100769.69;5202764;28;20033;-72
2022/11/15 01:59:54;;;;;;;47.03;22.80;;;;;;;10.51;100.00;100769.50;5203807;28;20768;-72
2022/11/15 02:02:24;;;;;;;52.25;24.60;;;;;;;10.52;100.00;100766.66;5203843;28;20087;-72
2022/11/15 02:04:55;;;;;;;48.85;24.13;;;;;;;10.52;100.00;100763.13;5204441;28;20021;-72
2022/11/15 02:07:37;;;;;;;51.33;25.33;;;;;;;10.54;100.00;100770.03;5190509;28;20030;-72
2022/11/15 02:10:21;;;;;;;55.47;26.00;;;;;;;10.56;100.00;100759.94;5203940;28;20096;-72
2022/11/15 02:13:02;;;;;;;63.30;27.90;;;;;;;10.58;100.00;100760.59;5203808;28;20022;-71
2022/11/15 02:15:40;;;;;;;54.63;26.38;;;;;;;10.61;100.00;100752.25;5203732;28;20144;-72
2022/11/15 02:18:37;;;;;;;59.45;28.05;;;;;;;10.62;100.00;100751.22;5202811;28;20021;-72
2022/11/15 02:21:20;;;;;;;64.78;27.67;;;;;;;10.66;100.00;100751.72;5204048;28;20029;-72
2022/11/15 02:24:36;;;;;;;69.38;28.83;;;;;;;10.69;100.00;100751.38;5190849;28;20022;-73
2022/11/15 02:27:24;;;;;;;61.67;28.60;;;;;;;10.71;100.00;100751.22;5186007;28;20046;-73
2022/11/15 02:30:21;;;;;;;60.70;28.58;;;;;;;10.73;100.00;100747.34;5205654;28;20026;-72
2022/11/15 02:33:17;;;;;;;65.68;29.98;;;;;;;10.75;100.00;100737.31;5204015;28;20029;-72
2022/11/15 02:36:02;;;;;;;84.30;31.05;;;;;;;10.77;100.00;100737.13;5206161;28;20053;-73
2022/11/15 02:39:16;;;;;;;65.55;30.73;;;;;;;10.81;100.00;100735.78;5206717;28;20422;-72
2022/11/15 02:41:55;;;;;;;67.30;28.92;;;;;;;10.81;100.00;100725.88;5173166;28;20042;-72
2022/11/15 02:44:34;;;;;;;59.72;27.40;;;;;;;10.82;100.00;100724.03;5204209;28;20391;-71
2022/11/15 02:47:13;;;;;;;67.82;27.77;;;;;;;10.80;100.00;100721.53;5206632;28;20033;-72
2022/11/15 02:49:48;;;;;;;64.40;27.52;;;;;;;10.79;100.00;100719.00;5206943;28;20113;-72
2022/11/15 02:52:27;;;;;;;59.40;27.60;;;;;;;10.77;100.00;100710.28;5207063;28;20025;-72
2022/11/15 02:55:01;;;;;;;60.38;26.55;;;;;;;10.76;100.00;100711.31;5207047;28;20033;-72
2022/11/15 02:57:56;;;;;;;66.97;26.13;;;;;;;10.75;100.00;100702.41;5206682;28;20029;-72
2022/11/15 03:00:34;;;;;;;56.92;25.25;;;;;;;10.72;100.00;100701.91;5206801;28;20037;-71
2022/11/15 03:03:05;;;;;;;51.55;25.48;;;;;;;10.72;100.00;100705.44;5206642;28;20032;-71
2022/11/15 03:05:41;;;;;;;55.63;24.98;;;;;;;10.72;100.00;100704.59;5206597;28;20038;-71
2022/11/15 03:08:44;;;;;;;53.55;24.23;;;;;;;10.72;100.00;100705.44;5205668;28;20029;-71
2022/11/15 03:11:22;;;;;;;55.25;24.33;;;;;;;10.72;100.00;100704.59;5198278;28;20048;-71
2022/11/15 03:13:57;;;;;;;62.38;24.10;;;;;;;10.73;100.00;100706.28;5205204;28;20049;-71
2022/11/15 03:16:36;;;;;;;49.22;24.20;;;;;;;10.74;100.00;100713.31;5206065;28;20033;-73
2022/11/15 03:19:28;;;;;;;49.40;23.77;;;;;;;10.71;100.00;100706.44;5205075;28;20029;-73
2022/11/15 03:22:02;;;;;;;57.45;22.65;;;;;;;10.70;100.00;100709.31;5206503;28;20483;-73
2022/11/15 03:24:37;;;;;;;49.55;24.08;;;;;;;10.70;100.00;100696.72;5204511;28;20017;-73
2022/11/15 03:27:11;;;;;;;47.78;22.40;;;;;;;10.70;100.00;100703.94;5185837;28;20028;-73
2022/11/15 03:29:47;;;;;;;57.03;23.92;;;;;;;10.67;100.00;100704.28;5202845;28;20017;-72
2022/11/15 03:32:23;;;;;;;51.42;22.83;;;;;;;10.70;100.00;100703.94;5203813;28;20036;-72
2022/11/15 03:35:00;;;;;;;52.33;23.13;;;;;;;10.68;100.00;100700.56;5204963;28;20013;-72
2022/11/15 03:37:34;;;;;;;54.08;23.17;;;;;;;10.68;100.00;100706.78;5204296;28;20512;-72
2022/11/15 03:40:05;;;;;;;48.03;22.92;;;;;;;10.66;100.00;100702.59;5205802;28;20029;-71
2022/11/15 03:42:48;;;;;;;53.80;23.25;;;;;;;10.66;100.00;100706.13;5206123;28;20052;-72
2022/11/15 03:45:21;;;;;;;46.97;23.30;;;;;;;10.65;100.00;100707.13;5204660;28;20532;-72
2022/11/15 03:48:00;;;;;;;49.05;24.05;;;;;;;10.66;100.00;100711.50;5204908;28;20094;-72
2022/11/15 03:50:31;;;;;;;54.70;23.65;;;;;;;10.65;100.00;100712.50;5205797;28;20025;-72
2022/11/15 03:53:02;;;;;;;50.05;23.17;;;;;;;10.65;100.00;100706.31;5205787;28;20156;-72
2022/11/15 03:55:33;;;;;;;48.30;22.98;;;;;;;10.64;100.00;100713.47;5205849;28;20108;-72
2022/11/15 03:58:03;;;;;;;53.45;24.48;;;;;;;10.62;100.00;100713.66;5205134;28;20127;-72
2022/11/15 04:00:34;;;;;;;50.85;23.35;;;;;;;10.62;100.00;100716.34;5205649;28;20068;-72
2022/11/15 04:03:04;;;;;;;54.35;23.63;;;;;;;10.64;100.00;100708.13;5205532;28;20032;-72
2022/11/15 04:05:35;;;;;;;48.58;22.45;;;;;;;10.62;100.00;100713.66;5205384;28;20613;-72
2022/11/15 04:08:05;;;;;;;45.00;23.23;;;;;;;10.62;100.00;100710.16;5204981;28;20075;-71
2022/11/15 04:10:36;;;;;;;49.38;21.42;;;;;;;10.60;100.00;100713.00;5205012;28;20499;-72
2022/11/15 04:13:06;;;;;;;49.80;22.45;;;;;;;10.57;100.00;100709.81;5205442;28;20079;-71
2022/11/15 04:15:37;;;;;;;49.85;22.38;;;;;;;10.57;100.00;100705.28;5205407;28;20041;-71
2022/11/15 04:18:07;;;;;;;49.38;21.63;;;;;;;10.59;100.00;100711.34;5204673;28;20082;-72
2022/11/15 04:26:18;;;;;;;47.03;19.30;;;;;;;10.61;100.00;100717.38;5190296;28;20037;-71
2022/11/15 04:31:38;;;;;;;32.05;15.85;;;;;;;10.61;100.00;100711.16;5201790;28;20490;-72
2022/11/15 04:34:08;;;;;;;35.83;15.57;;;;;;;10.59;100.00;100707.78;5204851;28;20057;-72
2022/11/15 04:39:27;;;;;;;35.92;14.48;;;;;;;10.54;100.00;100711.00;5204512;28;20026;-72
2022/11/15 04:41:58;;;;;;;28.38;13.15;;;;;;;10.54;100.00;100715.50;5203296;28;20029;-73
2022/11/15 04:44:28;;;;;;;25.58;13.88;;;;;;;10.52;100.00;100718.38;5204636;28;20114;-73
2022/11/15 04:46:59;;;;;;;28.75;13.63;;;;;;;10.51;100.00;100714.03;5204507;28;20029;-72
2022/11/15 04:49:29;;;;;;;23.42;12.50;;;;;;;10.48;100.00;100708.97;5204458;28;20025;-72
2022/11/15 04:52:00;;;;;;;32.60;12.23;;;;;;;10.47;100.00;100704.63;5204678;28;20022;-73
2022/11/15 04:54:30;;;;;;;27.25;11.35;;;;;;;10.49;100.00;100704.44;5204147;28;20104;-73
2022/11/15 04:57:01;;;;;;;21.80;10.52;;;;;;;10.49;100.00;100707.13;5204218;28;20451;-72
2022/11/15 04:59:31;;;;;;;23.63;10.23;;;;;;;10.49;100.00;100702.63;5204599;28;20029;-72
2022/11/15 05:02:02;;;;;;;26.70;10.57;;;;;;;10.45;100.00;100701.28;5204489;28;20510;-72
2022/11/15 05:04:32;;;;;;;27.27;9.45;;;;;;;10.43;100.00;100705.13;5204337;28;20391;-72
2022/11/15 05:07:06;;;;;;;21.70;9.27;;;;;;;10.38;100.00;100700.28;5203623;28;20501;-73
2022/11/15 05:09:36;;;;;;;19.88;9.13;;;;;;;10.35;100.00;100698.78;5203076;28;20387;-72
2022/11/15 05:12:06;;;;;;;23.77;9.73;;;;;;;10.30;100.00;100695.75;5204366;28;20025;-72
2022/11/15 05:14:37;;;;;;;22.83;9.82;;;;;;;10.24;100.00;100709.00;5204206;28;20036;-71
2022/11/15 05:17:07;;;;;;;27.50;8.55;;;;;;;10.18;100.00;100702.41;5203689;28;20025;-72
2022/11/15 05:19:38;;;;;;;17.92;8.32;;;;;;;10.16;100.00;100703.59;5203870;28;20048;-72
2022/11/15 05:22:08;;;;;;;21.58;8.38;;;;;;;10.16;100.00;100700.94;5204412;28;20034;-72
2022/11/15 05:24:39;;;;;;;22.48;9.40;;;;;;;10.18;100.00;100702.41;5202715;28;20434;-72
2022/11/15 05:27:09;;;;;;;21.50;8.57;;;;;;;10.15;100.00;100701.94;5194317;28;20368;-72
2022/11/15 05:29:40;;;;;;;19.83;8.38;;;;;;;10.14;100.00;100703.78;5200475;28;20065;-72
2022/11/15 05:32:12;;;;;;;17.95;8.95;;;;;;;10.12;100.00;100705.78;5201212;28;20124;-72
2022/11/15 05:34:43;;;;;;;15.65;8.82;;;;;;;10.08;100.00;100705.25;5204366;28;20674;-72
2022/11/15 05:37:14;;;;;;;21.33;9.38;;;;;;;10.05;100.00;100713.66;5203668;28;20083;-71
2022/11/15 05:39:44;;;;;;;20.70;9.20;;;;;;;10.02;100.00;100708.63;5203885;28;20383;-72
2022/11/15 05:42:15;;;;;;;18.88;8.95;;;;;;;10.00;100.00;100707.94;5203795;28;20077;-71
2022/11/15 05:44:48;;;;;;;19.27;9.63;;;;;;;9.98;100.00;100704.59;5203563;28;20079;-72
2022/11/15 05:47:24;;;;;;;21.58;10.05;;;;;;;9.97;100.00;100702.06;5203428;28;20117;-71
2022/11/15 05:49:56;;;;;;;18.80;9.00;;;;;;;9.97;100.00;100700.22;5203910;28;20024;-72
2022/11/15 05:52:31;;;;;;;19.83;9.10;;;;;;;9.95;100.00;100709.47;5203723;28;20025;-72
2022/11/15 05:55:03;;;;;;;18.30;8.70;;;;;;;9.93;100.00;100711.44;5203507;28;20025;-72
2022/11/15 05:57:34;;;;;;;17.35;8.93;;;;;;;9.90;100.00;100709.13;5203542;28;20108;-72
2022/11/15 06:00:05;;;;;;;20.67;8.98;;;;;;;9.87;100.00;100707.59;5205524;28;20484;-72
2022/11/15 06:02:35;;;;;;;20.10;9.10;;;;;;;9.84;100.00;100710.63;5208076;28;20057;-72
2022/11/15 06:05:06;;;;;;;18.95;8.82;;;;;;;9.79;100.00;100702.25;5207900;28;20078;-72
2022/11/15 06:07:36;;;;;;;16.33;8.65;;;;;;;9.75;100.00;100704.41;5207370;28;20033;-71
2022/11/15 06:10:08;;;;;;;22.05;8.50;;;;;;;9.72;100.00;100702.03;5207977;28;20030;-71
2022/11/15 06:12:38;;;;;;;19.85;7.95;;;;;;;9.68;100.00;100702.53;5207701;28;20418;-72
2022/11/15 06:15:09;;;;;;;19.83;9.77;;;;;;;9.64;100.00;100702.03;5207811;28;20028;-71
2022/11/15 06:17:39;;;;;;;19.60;8.75;;;;;;;9.61;100.00;100705.03;5206871;28;20136;-71
2022/11/15 06:20:10;;;;;;;21.23;8.43;;;;;;;9.60;100.00;100714.06;5207188;28;20032;-71
2022/11/15 06:22:41;;;;;;;17.10;9.15;;;;;;;9.57;100.00;100715.22;5207457;28;20057;-71
2022/11/15 06:25:11;;;;;;;20.25;8.68;;;;;;;9.57;100.00;100719.75;5201386;28;20497;-71
2022/11/15 06:27:41;;;;;;;25.25;8.80;;;;;;;9.51;100.00;100715.03;5200497;28;20498;-71
2022/11/15 06:30:12;;;;;;;20.13;9.50;;;;;;;9.49;100.00;100719.72;5207168;28;20105;-71
2022/11/15 06:32:43;;;;;;;26.15;9.75;;;;;;;9.48;100.00;100720.72;5204495;28;20044;-71
2022/11/15 06:35:14;;;;;;;22.20;8.90;;;;;;;9.48;100.00;100712.69;5207200;28;20013;-71
2022/11/15 06:37:44;;;;;;;23.38;8.57;;;;;;;9.52;100.00;100719.38;5206739;28;20025;-71
2022/11/15 06:40:15;;;;;;;20.48;7.95;;;;;;;9.54;100.00;100712.88;5207237;28;20033;-71
2022/11/15 06:42:45;;;;;;;19.05;8.27;;;;;;;9.52;100.00;100719.38;5206675;28;20368;-71
2022/11/15 06:45:16;;;;;;;20.13;8.07;;;;;;;9.48;100.00;100710.00;5206803;28;20009;-71
2022/11/15 06:47:47;;;;;;;20.52;8.35;;;;;;;9.44;100.00;100711.31;5206471;28;20028;-70
2022/11/15 06:50:18;;;;;;;18.58;8.02;;;;;;;9.38;100.00;100714.66;5206985;28;20510;-71
2022/11/15 06:52:48;;;;;;;15.90;7.78;;;;;;;9.28;100.00;100714.78;5206912;28;20025;-71
2022/11/15 06:55:19;;;;;;;18.02;7.93;;;;;;;9.18;100.00;100712.22;5206379;28;20041;-71
2022/11/15 06:57:51;;;;;;;13.18;7.68;;;;;;;9.09;100.00;100705.19;5206433;28;20513;-71
2022/11/15 07:00:22;;;;;;;23.10;8.80;;;;;;;9.10;100.00;100708.69;5206745;28;20021;-71
2022/11/15 07:02:52;;;;;;;19.98;8.45;;;;;;;9.02;100.00;100710.31;5206836;28;20610;-71
2022/11/15 07:05:23;;;;;;;26.48;10.23;;;;;;;8.95;100.00;100719.16;5206385;28;20446;-71
2022/11/15 07:07:54;;;;;;;28.90;9.43;;;;;;;8.87;100.00;100719.09;5206357;28;20037;-71
2022/11/15 07:10:26;;;;;;;20.83;9.02;;;;;;;8.85;100.00;100734.47;5206425;28;20112;-71
2022/11/15 07:12:56;;;;;;;24.50;8.70;;;;;;;8.80;100.00;100725.09;5206777;28;20075;-71
2022/11/15 07:15:27;;;;;;;16.63;9.27;;;;;;;8.78;100.00;100731.56;5206366;28;20421;-70
2022/11/15 07:18:01;;;;;;;19.42;8.50;;;;;;;8.76;100.00;100731.72;5206002;28;20108;-71
2022/11/15 07:20:31;;;;;;;17.13;8.90;;;;;;;8.76;100.00;100723.72;5206195;28;20037;-71
2022/11/15 07:23:04;;;;;;;18.63;7.90;;;;;;;8.78;100.00;100729.72;5206206;28;20033;-71
2022/11/15 07:25:34;;;;;;;26.48;9.48;;;;;;;8.75;100.00;100738.09;5197194;28;20034;-71
2022/11/15 07:28:05;;;;;;;17.95;8.65;;;;;;;8.77;100.00;100740.59;5202336;28;20083;-71
2022/11/15 07:30:35;;;;;;;20.20;8.95;;;;;;;8.74;100.00;100733.75;5205711;28;20048;-71
2022/11/15 07:33:06;;;;;;;22.33;9.23;;;;;;;8.74;100.00;100732.91;5204038;28;20116;-71
2022/11/15 07:35:36;;;;;;;20.90;10.23;;;;;;;8.74;100.00;100723.03;5206277;28;20553;-71
2022/11/15 07:38:07;;;;;;;23.52;9.52;;;;;;;8.78;100.00;100734.25;5205643;28;20693;-71
2022/11/15 07:40:37;;;;;;;20.65;10.35;;;;;;;8.78;100.00;100726.22;5205907;28;20565;-71
2022/11/15 07:43:08;;;;;;;19.40;9.07;;;;;;;8.82;100.00;100711.53;5205582;28;20390;-71
2022/11/15 07:45:43;;;;;;;17.02;8.98;;;;;;;8.94;100.00;100709.44;5205707;28;20040;-71
2022/11/15 07:48:14;;;;;;;17.25;8.60;;;;;;;9.01;100.00;100716.66;5205716;28;20053;-71
2022/11/15 07:50:44;;;;;;;18.00;8.10;;;;;;;9.09;100.00;100729.25;5205651;28;20057;-71
2022/11/15 07:53:15;;;;;;;16.85;8.75;;;;;;;9.12;100.00;100730.78;5205730;28;20475;-71
2022/11/15 07:55:45;;;;;;;17.38;8.13;;;;;;;9.18;100.00;100728.28;5205244;28;20053;-71
2022/11/15 07:58:17;;;;;;;20.15;7.43;;;;;;;9.21;100.00;100722.63;5205151;28;20021;-71
2022/11/15 08:00:48;;;;;;;17.27;8.10;;;;;;;9.31;100.00;100722.50;5205523;28;20032;-71
2022/11/15 08:03:18;;;;;;;16.88;7.85;;;;;;;9.37;100.00;100707.63;5205940;28;20522;-71
2022/11/15 08:05:52;;;;;;;20.77;8.07;;;;;;;9.46;100.00;100714.69;5201533;28;20040;-71
2022/11/15 08:08:22;;;;;;;13.45;6.57;;;;;;;9.64;100.00;100717.25;5204341;28;20033;-71
2022/11/15 08:10:53;;;;;;;12.32;5.97;;;;;;;9.75;100.00;100709.75;5205228;28;20025;-71
2022/11/15 08:13:24;;;;;;;13.48;5.70;;;;;;;9.88;100.00;100703.06;5205216;28;20491;-71
2022/11/15 08:16:02;;;;;;;17.08;5.80;;;;;;;10.12;100.00;100701.25;5205243;28;20037;-71
2022/11/15 08:18:33;;;;;;;11.30;5.05;;;;;;;10.32;100.00;100692.91;5197511;28;20045;-71
2022/11/15 08:21:04;;;;;;;12.32;4.95;;;;;;;10.44;100.00;100688.91;5204680;28;20056;-71
2022/11/15 08:23:34;;;;;;;11.52;4.57;;;;;;;10.71;100.00;100684.16;5195827;28;20353;-71
2022/11/15 08:26:05;;;;;;;9.65;4.00;;;;;;;10.93;100.00;100672.66;5194545;28;20124;-71
2022/11/15 08:28:35;;;;;;;10.25;4.30;;;;;;;11.22;100.00;100665.84;5190754;28;20027;-71
2022/11/15 08:31:06;;;;;;;7.57;3.65;;;;;;;11.27;100.00;100666.16;5200393;28;20045;-71
2022/11/15 08:33:36;;;;;;;10.05;3.60;;;;;;;11.54;100.00;100670.22;5200311;28;20034;-71
2022/11/15 08:36:16;;;;;;;6.43;3.10;;;;;;;11.39;100.00;100660.22;5195533;28;20021;-71
2022/11/15 08:38:47;;;;;;;5.90;2.90;;;;;;;11.58;100.00;100644.69;5202833;28;20301;-71
2022/11/15 08:41:28;;;;;;;5.78;3.20;;;;;;;11.89;100.00;100653.53;5203387;28;20049;-71
2022/11/15 08:43:59;;;;;;;9.00;3.05;;;;;;;11.98;100.00;100659.72;5203131;28;20076;-71
2022/11/15 08:46:29;;;;;;;8.27;3.00;;;;;;;11.82;100.00;100647.22;5201708;28;20025;-71
2022/11/15 08:49:00;;;;;;;7.45;2.90;;;;;;;11.91;100.00;100656.09;5196570;28;20382;-71
2022/11/15 08:51:30;;;;;;;8.10;2.80;;;;;;;12.03;100.00;100648.41;5203060;28;20026;-72
2022/11/15 08:54:00;;;;;;;8.90;2.70;;;;;;;11.77;100.00;100649.59;5202366;28;20102;-72
2022/11/15 08:56:31;;;;;;;6.53;1.80;;;;;;;11.98;100.00;100646.25;5201744;28;20383;-72
2022/11/15 08:59:01;;;;;;;9.07;2.65;;;;;;;11.72;100.00;100646.59;5202686;28;20055;-72
2022/11/15 09:01:32;;;;;;;5.63;1.92;;;;;;;11.54;100.00;100640.66;5203131;28;20431;-72
2022/11/15 09:04:03;;;;;;;6.43;1.50;;;;;;;11.50;100.00;100632.16;5202782;28;20430;-72
2022/11/15 09:06:34;;;;;;;7.43;2.22;;;;;;;11.77;100.00;100649.59;5201960;28;20041;-72
2022/11/15 09:09:04;;;;;;;5.57;2.53;;;;;;;11.69;100.00;100633.50;5200020;28;20025;-72
2022/11/15 09:11:35;;;;;;;3.15;1.20;;;;;;;11.56;100.00;100635.97;5200787;28;20497;-72
2022/11/15 09:14:05;;;;;;;4.05;1.30;;;;;;;11.40;100.00;100644.97;5202848;28;20018;-72
2022/11/15 09:16:36;;;;;;;9.45;1.60;;;;;;;11.25;100.00;100652.09;5202404;28;20029;-72
2022/11/15 09:19:06;;;;;;;2.88;1.30;;;;;;;11.02;100.00;100641.28;5202341;28;20115;-72
2022/11/15 09:21:37;;;;;;;3.45;1.35;;;;;;;11.38;100.00;100638.91;5203018;28;20021;-72
2022/11/15 09:24:08;;;;;;;5.72;1.50;;;;;;;11.51;100.00;100635.66;5202566;28;20021;-72
2022/11/15 09:26:39;;;;;;;4.75;1.80;;;;;;;11.12;100.00;100644.59;5189383;28;20025;-72
2022/11/15 09:29:10;;;;;;;5.10;1.58;;;;;;;11.22;100.00;100649.75;5202549;28;20032;-72
2022/11/15 09:31:40;;;;;;;9.65;1.67;;;;;;;11.78;100.00;100642.34;5199887;28;20037;-73
2022/11/15 09:34:11;;;;;;;5.90;1.52;;;;;;;12.19;100.00;100646.41;5202390;28;20064;-72
2022/11/15 09:36:42;;;;;;;6.45;2.00;;;;;;;12.19;100.00;100638.34;5206900;28;20033;-72
2022/11/15 09:39:12;;;;;;;6.47;2.03;;;;;;;12.18;100.00;100636.69;5206545;28;20049;-72
2022/11/15 09:42:12;;;;;;;8.45;1.40;;;;;;;12.32;100.00;100629.66;5206988;28;20498;-72
2022/11/15 09:45:09;;;;;;;7.05;1.52;;;;;;;12.23;100.00;100621.84;5191524;28;20033;-72
2022/11/15 09:48:17;;;;;;;7.13;1.85;;;;;;;12.22;100.00;100621.03;5206440;28;20511;-72
2022/11/15 09:50:49;;;;;;;9.02;1.60;;;;;;;12.31;100.00;100622.63;5207101;28;20097;-72
2022/11/15 09:53:59;;;;;;;7.60;2.20;;;;;;;12.23;100.00;100624.53;5207197;28;20025;-72
2022/11/15 09:56:32;;;;;;;6.65;1.63;;;;;;;12.23;100.00;100619.16;5191379;28;20122;-72
2022/11/15 09:59:05;;;;;;;3.70;1.58;;;;;;;12.26;100.00;100624.19;5206126;28;20083;-72
2022/11/15 10:01:45;;;;;;;11.43;1.65;;;;;;;12.41;100.00;100615.13;5206639;28;20037;-73
2022/11/15 10:04:16;;;;;;;5.40;1.48;;;;;;;12.48;100.00;100617.06;5194044;28;20290;-73
2022/11/15 10:06:55;;;;;;;6.72;1.67;;;;;;;12.58;100.00;100605.00;5206960;28;20033;-73
2022/11/15 10:09:57;;;;;;;16.08;2.05;;;;;;;12.60;100.00;100599.44;5208058;28;20025;-72
2022/11/15 10:12:28;;;;;;;6.05;1.50;;;;;;;12.74;100.00;100609.38;5194542;28;20109;-73
2022/11/15 10:15:09;;;;;;;7.82;1.95;;;;;;;12.64;100.00;100604.25;5205880;28;20395;-73
2022/11/15 10:18:17;;;;;;;8.30;1.80;;;;;;;12.33;100.00;100598.22;5205506;28;20229;-72
2022/11/15 10:20:52;;;;;;;6.55;1.35;;;;;;;12.18;100.00;100587.44;5206805;28;20064;-72
2022/11/15 10:23:23;;;;;;;5.50;1.33;;;;;;;12.19;100.00;100583.72;5204687;28;20021;-73
2022/11/15 10:25:57;;;;;;;5.57;1.10;;;;;;;11.95;100.00;100582.13;5204042;28;20030;-72
2022/11/15 10:28:30;;;;;;;8.38;1.33;;;;;;;12.13;100.00;100571.84;5192334;28;20039;-72
2022/11/15 10:31:01;;;;;;;5.63;1.25;;;;;;;12.12;100.00;100567.50;5205562;28;20538;-72
2022/11/15 10:33:39;;;;;;;5.00;1.30;;;;;;;12.12;100.00;100559.44;5206091;28;20028;-72
2022/11/15 10:36:09;;;;;;;3.92;1.05;;;;;;;12.18;100.00;100549.78;5205422;28;20017;-73
2022/11/15 10:39:00;;;;;;;4.13;1.10;;;;;;;12.40;100.00;100556.97;5207603;28;20386;-73
2022/11/15 10:41:35;;;;;;;5.05;1.45;;;;;;;12.35;100.00;100547.75;5205215;28;20112;-73
2022/11/15 10:44:12;;;;;;;7.93;1.05;;;;;;;12.32;100.00;100532.84;5205420;28;20025;-72
2022/11/15 10:46:50;;;;;;;5.60;0.95;;;;;;;12.29;100.00;100530.50;5204892;28;20076;-73
2022/11/15 10:49:24;;;;;;;9.13;1.45;;;;;;;12.24;100.00;100532.06;5205383;28;20029;-72
2022/11/15 10:52:01;;;;;;;4.28;1.13;;;;;;;12.02;100.00;100523.06;5205669;28;20025;-73
2022/11/15 10:54:37;;;;;;;9.90;1.63;;;;;;;11.93;100.00;100519.63;5205220;28;20029;-72
2022/11/15 10:57:13;;;;;;;14.90;2.95;;;;;;;12.17;100.00;100519.38;5204346;28;20025;-72
2022/11/15 10:59:49;;;;;;;13.55;2.30;;;;;;;12.07;100.00;100515.28;5205372;28;20475;-72
2022/11/15 11:02:45;;;;;;;8.90;1.90;;;;;;;11.86;100.00;100494.50;5205285;28;20418;-72
2022/11/15 11:05:26;;;;;;;;;;;;;;;11.72;100.00;100500.66;5204905;28;20060;-73
2022/11/15 11:08:18;;;;;;;5.22;0.95;;;;;;;11.71;100.00;100482.88;5204634;28;19920;-72
2022/11/15 11:10:54;;;;;;;7.80;1.55;;;;;;;11.79;100.00;100485.47;5205386;28;20026;-73
2022/11/15 11:13:27;;;;;;;5.93;1.27;;;;;;;11.73;100.00;100486.19;5205372;28;20029;-72
2022/11/15 11:16:29;;;;;;;2.85;1.20;;;;;;;11.64;100.00;100483.56;5204629;28;20390;-73
2022/11/15 11:19:17;;;;;;;8.40;2.10;;;;;;;11.73;100.00;100473.59;5204771;28;20028;-73
2022/11/15 11:22:17;;;;;;;6.00;1.10;;;;;;;11.70;100.00;100457.84;5204801;28;20048;-72
2022/11/15 11:25:15;;;;;;;8.50;1.20;;;;;;;11.79;100.00;100450.53;5202879;28;20030;-72
2022/11/15 11:27:55;;;;;;;5.40;1.45;;;;;;;11.88;100.00;100454.81;5191139;28;20030;-72
2022/11/15 11:30:57;;;;;;;10.75;3.00;;;;;;;11.93;100.00;100434.44;5204511;28;20029;-72
2022/11/15 11:33:44;;;;;;;4.32;1.00;;;;;;;12.06;100.00;100422.22;5196878;28;20034;-73
2022/11/15 11:36:23;;;;;;;5.03;1.40;;;;;;;12.01;100.00;100425.47;5204409;28;20394;-72
2022/11/15 11:39:13;;;;;;;5.05;1.15;;;;;;;11.95;100.00;100430.72;5204055;28;20108;-72
2022/11/15 11:41:55;;;;;;;6.13;1.80;;;;;;;11.92;100.00;100434.63;5204909;28;20044;-72
2022/11/15 11:45:04;;;;;;;11.02;1.75;;;;;;;11.92;100.00;100423.88;5204147;28;20028;-72
2022/11/15 11:47:43;;;;;;;5.68;1.20;;;;;;;12.06;100.00;100416.84;5178269;28;20042;-72
2022/11/15 11:50:19;;;;;;;9.68;1.30;;;;;;;12.01;100.00;100406.63;5204416;28;20742;-72
2022/11/15 11:52:52;;;;;;;9.30;1.20;;;;;;;12.09;100.00;100409.22;5204431;28;20029;-72
2022/11/15 11:55:29;;;;;;;5.65;1.65;;;;;;;12.04;100.00;100408.94;5203479;28;20104;-73